Time;durP1;ratioP1;P1;durP2;ratioP2;P2;SDS_P1;SDS_P2;PMS_P1;PMS_P2;Temp;Humidity;BMP_temperature;BMP_pressure;BME280_temperature;BME280_humidity;BME280_pressure;Samples;Min_cycle;Max_cycle;Signal;HPM_P1;HPM_P2
2022/11/26 00:00:17;;;;;;;6.80;2.03;;;;;;;;;;5043216;28;20029;-89
2022/11/26 00:02:43;;;;;;;3.63;1.88;;;;;;;;;;5053214;28;20029;-90
2022/11/26 00:05:10;;;;;;;6.70;2.13;;;;;;;;;;5060526;28;20024;-90
2022/11/26 00:07:36;;;;;;;6.85;2.15;;;;;;;;;;5086173;28;20059;-91
2022/11/26 00:10:03;;;;;;;9.00;2.20;;;;;;;;;;5061744;28;20009;-89
2022/11/26 00:12:35;;;;;;;6.97;2.17;;;;;;;;;;5071082;28;20045;-89
2022/11/26 00:15:14;;;;;;;8.70;3.15;;;;;;;;;;5060874;28;20343;-88
2022/11/26 00:17:39;;;;;;;13.18;2.60;;;;;;;;;;5037365;28;20025;-87
2022/11/26 00:20:06;;;;;;;4.70;2.28;;;;;;;;;;5060237;28;20028;-92
2022/11/26 00:23:19;;;;;;;7.47;2.08;;;;;;;;;;5069063;28;20052;-87
2022/11/26 00:25:48;;;;;;;6.22;2.03;;;;;;;;;;5038862;28;20029;-88
2022/11/26 00:28:36;;;;;;;4.45;2.47;;;;;;;;;;5046241;28;20025;-88
2022/11/26 00:31:41;;;;;;;5.45;2.15;;;;;;;;;;5059744;28;20021;-89
2022/11/26 00:34:06;;;;;;;4.63;2.00;;;;;;;;;;5023862;28;20040;-90
2022/11/26 00:37:29;;;;;;;6.70;2.00;;;;;;;;;;5064512;28;20499;-89
2022/11/26 00:39:57;;;;;;;6.38;2.05;;;;;;;;;;5044441;28;20036;-90
2022/11/26 00:42:23;;;;;;;5.75;2.20;;;;;;;;;;5068172;28;20044;-87
2022/11/26 00:44:48;;;;;;;7.63;2.42;;;;;;;;;;5043304;28;20029;-87
2022/11/26 00:47:17;;;;;;;3.05;2.08;;;;;;;;;;5053832;28;20059;-88
2022/11/26 00:49:42;;;;;;;6.72;2.00;;;;;;;;;;5047675;28;20017;-88
2022/11/26 00:52:35;;;;;;;9.38;2.33;;;;;;;;;;5063196;28;20060;-90
2022/11/26 00:55:07;;;;;;;4.20;2.08;;;;;;;;;;5072370;28;20145;-88
2022/11/26 00:57:35;;;;;;;5.80;2.13;;;;;;;;;;5060065;28;20036;-88
2022/11/26 01:00:23;;;;;;;8.13;2.28;;;;;;;;;;5064708;28;20452;-88
2022/11/26 01:02:49;;;;;;;6.07;2.25;;;;;;;;;;5063753;28;20529;-88
2022/11/26 01:05:32;;;;;;;6.47;2.78;;;;;;;;;;5068256;28;20033;-89
2022/11/26 01:08:09;;;;;;;9.20;2.33;;;;;;;;;;5048562;28;20033;-91
2022/11/26 01:10:37;;;;;;;9.27;2.42;;;;;;;;;;5049290;28;20059;-90
2022/11/26 01:13:10;;;;;;;7.88;2.67;;;;;;;;;;5048632;28;20659;-89
2022/11/26 01:15:35;;;;;;;11.15;2.10;;;;;;;;;;5067201;28;20082;-89
2022/11/26 01:18:01;;;;;;;6.40;2.38;;;;;;;;;;5055359;28;20029;-90
2022/11/26 01:20:29;;;;;;;8.65;3.15;;;;;;;;;;5053518;28;20105;-90
2022/11/26 01:22:57;;;;;;;4.25;2.20;;;;;;;;;;5045412;28;20501;-89
2022/11/26 01:25:25;;;;;;;5.97;2.13;;;;;;;;;;5051741;28;20028;-89
2022/11/26 01:27:51;;;;;;;4.53;2.25;;;;;;;;;;5043719;28;20542;-91
2022/11/26 01:30:26;;;;;;;7.38;2.40;;;;;;;;;;5044046;28;20021;-89
2022/11/26 01:32:52;;;;;;;5.90;2.22;;;;;;;;;;5044304;28;20032;-88
2022/11/26 01:35:19;;;;;;;5.95;2.03;;;;;;;;;;5043380;28;20032;-89
2022/11/26 01:37:45;;;;;;;5.55;2.25;;;;;;;;;;5038559;28;20490;-89
2022/11/26 01:40:36;;;;;;;7.97;2.13;;;;;;;;;;5065012;28;20024;-89
2022/11/26 01:43:10;;;;;;;6.32;1.70;;;;;;;;;;5049570;28;20036;-90
2022/11/26 01:45:36;;;;;;;7.57;2.78;;;;;;;;;;5071404;28;20031;-92
2022/11/26 01:48:09;;;;;;;10.02;2.22;;;;;;;;;;5072247;28;20020;-92
2022/11/26 01:50:34;;;;;;;10.02;2.80;;;;;;;;;;5060107;28;20033;-91
2022/11/26 01:53:09;;;;;;;9.25;2.30;;;;;;;;;;5073128;28;20532;-92
2022/11/26 01:55:48;;;;;;;6.03;1.98;;;;;;;;;;5048555;28;20039;-92
2022/11/26 01:58:23;;;;;;;2.97;1.95;;;;;;;;;;5057128;28;20057;-91
2022/11/26 02:00:49;;;;;;;3.03;2.25;;;;;;;;;;5050229;28;20021;-91
2022/11/26 02:03:15;;;;;;;5.88;2.20;;;;;;;;;;5067528;28;20027;-91
2022/11/26 02:05:54;;;;;;;7.03;2.05;;;;;;;;;;5047472;28;20049;-90
2022/11/26 02:08:20;;;;;;;3.80;2.17;;;;;;;;;;5059167;28;20021;-90
2022/11/26 02:10:45;;;;;;;3.78;2.03;;;;;;;;;;5064313;28;20079;-90
2022/11/26 02:13:11;;;;;;;12.27;2.67;;;;;;;;;;5068799;28;20021;-91
2022/11/26 02:15:54;;;;;;;2.35;1.90;;;;;;;;;;5071811;28;20040;-91
2022/11/26 02:18:21;;;;;;;8.70;2.45;;;;;;;;;;5086999;28;20087;-90
2022/11/26 02:20:52;;;;;;;4.38;2.22;;;;;;;;;;5090560;28;20046;-90
2022/11/26 02:24:10;;;;;;;8.73;2.10;;;;;;;;;;5082455;28;20029;-90
2022/11/26 02:26:55;;;;;;;4.78;2.10;;;;;;;;;;5079554;28;20364;-89
2022/11/26 02:29:42;;;;;;;5.50;2.22;;;;;;;;;;5074723;28;20522;-90
2022/11/26 02:32:16;;;;;;;4.88;2.30;;;;;;;;;;5052026;28;20033;-89
2022/11/26 02:35:00;;;;;;;7.28;2.88;;;;;;;;;;5055726;28;20448;-92
2022/11/26 02:37:36;;;;;;;5.47;1.92;;;;;;;;;;5062066;28;20376;-91
2022/11/26 02:40:01;;;;;;;4.72;2.15;;;;;;;;;;5062086;28;20031;-92
2022/11/26 02:42:32;;;;;;;3.17;1.90;;;;;;;;;;5042249;28;20111;-90
2022/11/26 02:45:03;;;;;;;8.18;2.30;;;;;;;;;;5062511;28;20451;-90
2022/11/26 02:47:29;;;;;;;3.97;2.15;;;;;;;;;;5061019;28;20039;-90
2022/11/26 02:49:59;;;;;;;2.40;2.20;;;;;;;;;;5066045;28;20017;-90
2022/11/26 02:52:27;;;;;;;3.95;1.85;;;;;;;;;;5064549;28;20052;-90
2022/11/26 02:54:54;;;;;;;5.60;2.20;;;;;;;;;;5067476;28;20016;-91
2022/11/26 02:57:23;;;;;;;7.32;2.30;;;;;;;;;;5050851;28;20099;-90
2022/11/26 02:59:49;;;;;;;5.35;2.10;;;;;;;;;;5059768;28;20041;-91
2022/11/26 03:02:26;;;;;;;3.35;2.30;;;;;;;;;;5050753;28;20038;-91
2022/11/26 03:04:57;;;;;;;4.10;1.98;;;;;;;;;;5050106;28;20110;-90
2022/11/26 03:07:23;;;;;;;7.50;2.83;;;;;;;;;;5049299;28;20623;-91
2022/11/26 03:09:59;;;;;;;5.63;2.38;;;;;;;;;;5050318;28;20056;-90
2022/11/26 03:12:25;;;;;;;4.00;2.20;;;;;;;;;;5047719;28;20389;-91
2022/11/26 03:14:51;;;;;;;6.78;2.35;;;;;;;;;;5046902;28;20037;-91
2022/11/26 03:17:17;;;;;;;2.15;1.60;;;;;;;;;;5043580;28;20407;-90
2022/11/26 03:19:43;;;;;;;3.90;1.63;;;;;;;;;;5047878;28;20025;-91
2022/11/26 03:22:09;;;;;;;3.58;2.00;;;;;;;;;;5046018;28;20046;-92
2022/11/26 03:24:35;;;;;;;7.28;2.60;;;;;;;;;;5061723;28;20398;-91
2022/11/26 03:27:01;;;;;;;5.07;2.00;;;;;;;;;;5048687;28;20332;-90
2022/11/26 03:29:26;;;;;;;6.38;2.05;;;;;;;;;;5051057;28;20028;-91
2022/11/26 03:31:52;;;;;;;4.30;2.50;;;;;;;;;;5072412;28;20096;-90
2022/11/26 03:34:17;;;;;;;5.22;2.15;;;;;;;;;;5052393;28;20443;-91
2022/11/26 03:36:43;;;;;;;4.30;2.15;;;;;;;;;;5047408;28;20021;-89
2022/11/26 03:39:08;;;;;;;4.68;1.88;;;;;;;;;;5040284;28;20058;-90
2022/11/26 03:41:34;;;;;;;2.85;1.80;;;;;;;;;;5032751;28;20029;-90
2022/11/26 03:43:59;;;;;;;5.10;1.80;;;;;;;;;;5056227;28;21498;-91
2022/11/26 03:46:25;;;;;;;4.22;2.08;;;;;;;;;;5038692;28;20132;-91
2022/11/26 03:48:50;;;;;;;5.05;2.28;;;;;;;;;;5035905;28;20021;-91
2022/11/26 03:51:15;;;;;;;7.93;2.22;;;;;;;;;;5036404;28;20127;-90
2022/11/26 03:53:41;;;;;;;6.05;2.38;;;;;;;;;;5036570;28;20039;-90
2022/11/26 03:56:06;;;;;;;4.60;1.85;;;;;;;;;;5053488;28;20024;-90
2022/11/26 03:58:38;;;;;;;8.02;2.20;;;;;;;;;;5058551;28;20051;-91
2022/11/26 04:01:11;;;;;;;4.07;1.98;;;;;;;;;;5063196;28;20568;-91
2022/11/26 04:03:37;;;;;;;8.30;2.20;;;;;;;;;;5036244;28;20442;-90
2022/11/26 04:06:03;;;;;;;8.45;1.83;;;;;;;;;;5052233;28;20017;-90
2022/11/26 04:08:29;;;;;;;3.47;1.85;;;;;;;;;;5034076;28;20491;-89
2022/11/26 04:10:54;;;;;;;9.38;2.03;;;;;;;;;;5025593;28;20028;-91
2022/11/26 04:13:20;;;;;;;6.35;2.15;;;;;;;;;;5047302;28;20040;-90
2022/11/26 04:15:46;;;;;;;4.78;2.22;;;;;;;;;;5036905;28;20025;-89
2022/11/26 04:18:12;;;;;;;9.63;2.50;;;;;;;;;;5036850;28;20021;-91
2022/11/26 04:20:37;;;;;;;6.85;2.38;;;;;;;;;;5051790;28;20096;-89
2022/11/26 04:23:02;;;;;;;6.32;2.13;;;;;;;;;;5040791;28;20031;-90
2022/11/26 04:25:28;;;;;;;12.82;2.78;;;;;;;;;;5053198;28;20394;-90
2022/11/26 04:27:53;;;;;;;8.48;2.55;;;;;;;;;;5056277;28;20625;-90
2022/11/26 04:30:19;;;;;;;4.05;2.22;;;;;;;;;;5052532;28;20021;-90
2022/11/26 04:32:44;;;;;;;8.57;2.22;;;;;;;;;;5053803;28;20025;-90
2022/11/26 04:35:10;;;;;;;6.75;2.33;;;;;;;;;;5052737;28;20086;-90
2022/11/26 04:37:35;;;;;;;5.32;2.00;;;;;;;;;;5051519;28;20067;-89
2022/11/26 04:40:01;;;;;;;7.13;2.85;;;;;;;;;;5035776;28;20387;-94
2022/11/26 04:42:26;;;;;;;8.05;2.53;;;;;;;;;;5035754;28;20021;-92
2022/11/26 04:44:51;;;;;;;7.47;2.47;;;;;;;;;;5053867;28;20024;-91
2022/11/26 04:47:17;;;;;;;5.40;2.58;;;;;;;;;;5053033;28;20493;-91
2022/11/26 04:49:42;;;;;;;11.70;3.05;;;;;;;;;;5059542;28;20021;-92
2022/11/26 04:52:08;;;;;;;9.38;2.45;;;;;;;;;;5048322;28;20474;-91
2022/11/26 04:54:33;;;;;;;10.05;2.75;;;;;;;;;;5042150;28;20036;-91
2022/11/26 04:56:59;;;;;;;8.15;2.50;;;;;;;;;;5037147;28;20082;-91
2022/11/26 04:59:24;;;;;;;8.15;2.95;;;;;;;;;;5037999;28;20390;-91
2022/11/26 05:01:50;;;;;;;5.93;2.30;;;;;;;;;;5037140;28;20040;-90
2022/11/26 05:04:15;;;;;;;4.05;2.00;;;;;;;;;;5056003;28;20025;-91
2022/11/26 05:06:41;;;;;;;6.25;2.65;;;;;;;;;;5060902;28;20020;-92
2022/11/26 05:09:06;;;;;;;10.52;2.38;;;;;;;;;;5042818;28;20024;-92
2022/11/26 05:11:31;;;;;;;10.30;2.55;;;;;;;;;;5042278;28;20017;-92
2022/11/26 05:13:57;;;;;;;6.85;2.40;;;;;;;;;;5041577;28;20031;-90
2022/11/26 05:16:22;;;;;;;14.77;2.72;;;;;;;;;;5060282;28;20545;-91
2022/11/26 05:18:48;;;;;;;11.07;2.63;;;;;;;;;;5037520;28;20494;-91
2022/11/26 05:21:13;;;;;;;8.40;2.70;;;;;;;;;;5055374;28;20021;-91
2022/11/26 05:23:39;;;;;;;4.32;2.78;;;;;;;;;;5039701;28;20470;-91
2022/11/26 05:26:04;;;;;;;13.02;3.10;;;;;;;;;;5038867;28;20024;-91
2022/11/26 05:28:30;;;;;;;12.45;3.15;;;;;;;;;;5038974;28;20407;-91
2022/11/26 05:31:00;;;;;;;7.22;3.10;;;;;;;;;;5048897;28;20029;-90
2022/11/26 05:33:26;;;;;;;2.92;2.63;;;;;;;;;;5055760;28;20009;-91
2022/11/26 05:35:51;;;;;;;4.80;2.80;;;;;;;;;;5049794;28;20013;-91
2022/11/26 05:38:16;;;;;;;6.00;2.53;;;;;;;;;;5057514;28;20049;-90
2022/11/26 05:40:42;;;;;;;8.13;2.55;;;;;;;;;;5056351;28;20029;-88
2022/11/26 05:43:07;;;;;;;6.57;2.95;;;;;;;;;;5053980;28;20028;-90
2022/11/26 05:45:33;;;;;;;7.13;2.80;;;;;;;;;;5059197;28;20025;-89
2022/11/26 05:47:58;;;;;;;5.22;2.75;;;;;;;;;;5046283;28;20025;-90
2022/11/26 05:50:24;;;;;;;5.82;2.90;;;;;;;;;;5038824;28;20033;-90
2022/11/26 05:52:49;;;;;;;11.70;2.60;;;;;;;;;;5039588;28;20029;-90
2022/11/26 05:55:15;;;;;;;12.15;2.95;;;;;;;;;;5055919;28;20048;-89
2022/11/26 05:57:41;;;;;;;3.90;2.50;;;;;;;;;;5065923;28;20035;-91
2022/11/26 06:00:09;;;;;;;4.50;2.25;;;;;;;;;;5073718;28;20093;-91
2022/11/26 06:02:35;;;;;;;5.38;2.42;;;;;;;;;;5068252;28;20056;-90
2022/11/26 06:05:00;;;;;;;4.18;2.40;;;;;;;;;;5051180;28;20486;-89
2022/11/26 06:07:26;;;;;;;5.28;2.45;;;;;;;;;;5039432;28;20025;-89
2022/11/26 06:09:51;;;;;;;4.13;2.78;;;;;;;;;;5039445;28;20044;-90
2022/11/26 06:12:16;;;;;;;3.83;2.45;;;;;;;;;;5040066;28;20487;-90
2022/11/26 06:14:42;;;;;;;7.63;2.42;;;;;;;;;;5039356;28;20028;-90
2022/11/26 06:17:07;;;;;;;4.88;2.45;;;;;;;;;;5044864;28;20025;-90
2022/11/26 06:19:33;;;;;;;9.10;2.40;;;;;;;;;;5053198;28;20044;-91
2022/11/26 06:21:58;;;;;;;3.53;2.40;;;;;;;;;;5077437;28;21115;-90
2022/11/26 06:24:24;;;;;;;7.40;2.45;;;;;;;;;;5056543;28;20054;-90
2022/11/26 06:26:49;;;;;;;4.22;2.55;;;;;;;;;;5049585;28;20210;-89
2022/11/26 06:29:15;;;;;;;3.42;2.40;;;;;;;;;;5049912;28;20636;-90
2022/11/26 06:31:40;;;;;;;10.40;3.17;;;;;;;;;;5050873;28;20021;-89
2022/11/26 06:34:05;;;;;;;10.18;3.05;;;;;;;;;;5038481;28;20096;-91
2022/11/26 06:36:31;;;;;;;8.98;2.65;;;;;;;;;;5057978;28;20029;-89
2022/11/26 06:38:56;;;;;;;7.22;2.75;;;;;;;;;;5056140;28;20110;-89
2022/11/26 06:41:22;;;;;;;6.50;2.65;;;;;;;;;;5054818;28;20025;-89
2022/11/26 06:43:47;;;;;;;5.07;2.50;;;;;;;;;;5078703;28;20009;-89
2022/11/26 06:46:13;;;;;;;7.32;2.58;;;;;;;;;;5068076;28;20040;-88
2022/11/26 06:48:39;;;;;;;6.38;3.03;;;;;;;;;;5052219;28;20025;-89
2022/11/26 06:51:07;;;;;;;6.10;2.53;;;;;;;;;;5040197;28;20053;-89
2022/11/26 06:53:32;;;;;;;13.93;2.92;;;;;;;;;;5040027;28;20025;-89
2022/11/26 06:56:06;;;;;;;4.18;2.60;;;;;;;;;;5039760;28;20379;-90
2022/11/26 06:58:31;;;;;;;28.85;3.75;;;;;;;;;;5056802;28;20057;-89
2022/11/26 07:00:57;;;;;;;3.95;2.70;;;;;;;;;;5044648;28;20036;-88
2022/11/26 07:03:23;;;;;;;4.60;2.40;;;;;;;;;;5040235;28;20025;-88
2022/11/26 07:05:49;;;;;;;7.72;3.15;;;;;;;;;;5050230;28;20039;-88
2022/11/26 07:08:14;;;;;;;5.13;2.60;;;;;;;;;;5029520;28;20064;-89
2022/11/26 07:10:39;;;;;;;9.25;2.97;;;;;;;;;;5052919;28;20081;-91
2022/11/26 07:13:05;;;;;;;14.73;3.03;;;;;;;;;;5056521;28;20031;-89
2022/11/26 07:15:30;;;;;;;41.75;3.55;;;;;;;;;;5040252;28;20067;-90
2022/11/26 07:17:57;;;;;;;28.23;3.22;;;;;;;;;;5056462;28;20394;-89
2022/11/26 07:20:23;;;;;;;4.30;3.35;;;;;;;;;;5056360;28;20623;-91
2022/11/26 07:22:48;;;;;;;6.28;3.10;;;;;;;;;;5053645;28;20116;-90
2022/11/26 07:25:15;;;;;;;7.25;3.38;;;;;;;;;;5035657;28;20108;-91
2022/11/26 07:27:41;;;;;;;5.88;2.72;;;;;;;;;;5056520;28;20028;-90
2022/11/26 07:30:07;;;;;;;4.45;2.58;;;;;;;;;;5039760;28;20070;-89
2022/11/26 07:32:33;;;;;;;5.50;2.95;;;;;;;;;;5039718;28;20035;-90
2022/11/26 07:34:59;;;;;;;4.95;2.65;;;;;;;;;;5058308;28;20116;-90
2022/11/26 07:37:24;;;;;;;6.72;3.03;;;;;;;;;;5055602;28;20425;-90
2022/11/26 07:39:50;;;;;;;3.20;2.65;;;;;;;;;;5057425;28;20021;-90
2022/11/26 07:42:15;;;;;;;6.70;3.13;;;;;;;;;;5044213;28;20431;-90
2022/11/26 07:44:41;;;;;;;7.63;3.17;;;;;;;;;;5044673;28;20039;-89
2022/11/26 07:47:06;;;;;;;3.45;2.45;;;;;;;;;;5053408;28;20084;-91
2022/11/26 07:49:32;;;;;;;7.78;3.08;;;;;;;;;;5065066;28;20025;-90
2022/11/26 07:51:57;;;;;;;7.75;3.67;;;;;;;;;;5050852;28;20052;-90
2022/11/26 07:54:23;;;;;;;5.22;3.45;;;;;;;;;;5052910;28;20025;-91
2022/11/26 07:56:48;;;;;;;6.30;3.92;;;;;;;;;;5057346;28;20017;-91
2022/11/26 07:59:16;;;;;;;10.25;3.72;;;;;;;;;;5077253;28;20055;-91
2022/11/26 08:01:41;;;;;;;8.30;3.15;;;;;;;;;;5075806;28;20025;-91
2022/11/26 08:04:06;;;;;;;9.00;3.22;;;;;;;;;;5091920;28;20028;-89
2022/11/26 08:06:32;;;;;;;9.68;4.07;;;;;;;;;;5072268;28;20084;-90
2022/11/26 08:08:59;;;;;;;7.63;3.53;;;;;;;;;;5066207;28;20033;-92
2022/11/26 08:11:27;;;;;;;6.07;3.70;;;;;;;;;;5057885;28;20029;-89
2022/11/26 08:14:02;;;;;;;9.07;3.63;;;;;;;;;;5057806;28;20067;-90
2022/11/26 08:16:27;;;;;;;9.82;3.22;;;;;;;;;;5045921;28;20036;-90
2022/11/26 08:18:54;;;;;;;7.20;2.97;;;;;;;;;;5066007;28;20016;-89
2022/11/26 08:21:20;;;;;;;10.18;3.83;;;;;;;;;;5043622;28;20031;-92
2022/11/26 08:23:45;;;;;;;5.78;3.40;;;;;;;;;;5044126;28;20024;-92
2022/11/26 08:26:13;;;;;;;20.98;3.13;;;;;;;;;;5054898;28;20083;-90
2022/11/26 08:28:39;;;;;;;6.68;3.08;;;;;;;;;;5036460;28;20060;-92
2022/11/26 08:31:06;;;;;;;9.48;3.25;;;;;;;;;;5035735;28;20064;-90
2022/11/26 08:33:32;;;;;;;6.43;3.85;;;;;;;;;;5048466;28;20035;-92
2022/11/26 08:35:58;;;;;;;6.68;2.83;;;;;;;;;;5036504;28;20040;-91
2022/11/26 08:38:25;;;;;;;8.15;3.08;;;;;;;;;;5038912;28;20033;-89
2022/11/26 08:40:53;;;;;;;6.35;3.75;;;;;;;;;;5038667;28;20095;-91
2022/11/26 08:43:19;;;;;;;10.88;3.65;;;;;;;;;;5053044;28;20025;-91
2022/11/26 08:45:57;;;;;;;10.57;3.75;;;;;;;;;;5034269;28;20033;-90
2022/11/26 08:48:24;;;;;;;3.78;2.97;;;;;;;;;;5025653;28;20013;-90
2022/11/26 08:50:50;;;;;;;5.95;2.97;;;;;;;;;;5053229;28;20391;-89
2022/11/26 08:53:15;;;;;;;8.05;3.65;;;;;;;;;;5054900;28;20485;-90
2022/11/26 08:55:41;;;;;;;9.07;3.40;;;;;;;;;;5049948;28;20029;-90
2022/11/26 08:58:06;;;;;;;8.57;3.55;;;;;;;;;;5036965;28;20029;-89
2022/11/26 09:00:32;;;;;;;7.38;4.32;;;;;;;;;;5055029;28;20047;-92
2022/11/26 09:02:57;;;;;;;5.43;3.20;;;;;;;;;;5052535;28;20029;-91
2022/11/26 09:05:23;;;;;;;7.05;3.55;;;;;;;;;;5056496;28;20386;-90
2022/11/26 09:07:48;;;;;;;9.50;3.55;;;;;;;;;;5070451;28;20032;-92
2022/11/26 09:10:14;;;;;;;5.10;3.13;;;;;;;;;;5039330;28;20040;-91
2022/11/26 09:12:39;;;;;;;5.00;3.15;;;;;;;;;;5039582;28;20095;-91
2022/11/26 09:15:05;;;;;;;8.05;4.20;;;;;;;;;;5057528;28;20025;-92
2022/11/26 09:17:30;;;;;;;13.25;5.40;;;;;;;;;;5054471;28;20074;-91
2022/11/26 09:19:56;;;;;;;17.55;5.60;;;;;;;;;;5045351;28;20116;-92
2022/11/26 09:22:22;;;;;;;12.35;6.25;;;;;;;;;;5039867;28;20132;-91
2022/11/26 09:24:48;;;;;;;12.18;6.22;;;;;;;;;;5055400;28;20071;-92
2022/11/26 09:27:13;;;;;;;11.30;6.15;;;;;;;;;;5055756;28;20025;-91
2022/11/26 09:29:38;;;;;;;9.38;4.18;;;;;;;;;;5058507;28;20020;-90
2022/11/26 09:32:04;;;;;;;10.65;4.40;;;;;;;;;;5070902;28;20039;-93
2022/11/26 09:34:30;;;;;;;11.80;4.57;;;;;;;;;;5077885;28;20025;-92
2022/11/26 09:36:55;;;;;;;14.13;4.82;;;;;;;;;;5059102;28;20035;-90
2022/11/26 09:39:21;;;;;;;8.32;4.00;;;;;;;;;;5064986;28;20104;-92
2022/11/26 09:41:53;;;;;;;16.98;4.35;;;;;;;;;;5060602;28;20032;-91
2022/11/26 09:44:41;;;;;;;12.55;3.83;;;;;;;;;;5058717;28;20025;-90
2022/11/26 09:47:32;;;;;;;5.97;3.58;;;;;;;;;;5076655;28;20045;-92
2022/11/26 09:50:21;;;;;;;8.48;4.15;;;;;;;;;;5070314;28;20013;-91
2022/11/26 09:52:51;;;;;;;9.07;3.67;;;;;;;;;;5039971;28;20033;-90
2022/11/26 09:55:32;;;;;;;14.43;4.20;;;;;;;;;;5041586;28;20483;-90
2022/11/26 09:58:12;;;;;;;5.33;3.97;;;;;;;;;;5041891;28;20024;-90
2022/11/26 10:00:42;;;;;;;12.93;3.58;;;;;;;;;;5063838;28;20281;-90
2022/11/26 10:03:17;;;;;;;11.27;4.55;;;;;;;;;;5062588;28;20458;-91
2022/11/26 10:05:53;;;;;;;12.30;4.18;;;;;;;;;;5052514;28;20025;-92
2022/11/26 10:08:46;;;;;;;12.15;4.10;;;;;;;;;;5060833;28;20538;-92
2022/11/26 10:11:32;;;;;;;16.80;4.05;;;;;;;;;;5058803;28;20033;-91
2022/11/26 10:14:25;;;;;;;9.43;3.38;;;;;;;;;;5056902;28;20046;-91
2022/11/26 10:17:11;;;;;;;6.75;2.72;;;;;;;;;;5062990;28;20031;-92
2022/11/26 10:20:02;;;;;;;7.55;3.10;;;;;;;;;;5059369;28;20092;-89
2022/11/26 10:22:54;;;;;;;7.88;3.03;;;;;;;;;;5040673;28;20112;-88
2022/11/26 10:25:23;;;;;;;15.27;4.07;;;;;;;;;;5049903;28;20028;-89
2022/11/26 10:27:52;;;;;;;6.72;3.30;;;;;;;;;;5050201;28;20029;-89
2022/11/26 10:30:19;;;;;;;12.98;2.78;;;;;;;;;;5054912;28;20467;-89
2022/11/26 10:32:50;;;;;;;9.13;2.78;;;;;;;;;;5041748;28;20040;-90
2022/11/26 10:35:25;;;;;;;9.63;2.53;;;;;;;;;;5057140;28;20466;-88
2022/11/26 10:37:51;;;;;;;10.40;4.32;;;;;;;;;;5051544;28;20434;-88
2022/11/26 10:40:24;;;;;;;8.70;3.88;;;;;;;;;;5032595;28;20055;-91
2022/11/26 10:43:07;;;;;;;6.70;2.92;;;;;;;;;;5061782;28;20039;-89
2022/11/26 10:45:44;;;;;;;10.15;3.08;;;;;;;;;;5059306;28;20017;-89
2022/11/26 10:48:29;;;;;;;10.73;2.97;;;;;;;;;;5059037;28;20056;-90
2022/11/26 10:51:15;;;;;;;9.50;2.88;;;;;;;;;;5061816;28;20020;-90
2022/11/26 10:53:51;;;;;;;11.00;2.70;;;;;;;;;;5042630;28;20029;-92
2022/11/26 10:56:40;;;;;;;3.53;2.40;;;;;;;;;;5043022;28;20031;-91
2022/11/26 10:59:39;;;;;;;8.10;3.22;;;;;;;;;;5024615;28;20068;-91
2022/11/26 11:02:29;;;;;;;12.07;3.25;;;;;;;;;;5023150;28;20483;-91
2022/11/26 11:04:57;;;;;;;7.57;2.55;;;;;;;;;;5042370;28;20030;-90
2022/11/26 11:07:36;;;;;;;5.57;2.53;;;;;;;;;;5039577;28;20018;-90
2022/11/26 11:10:13;;;;;;;7.55;2.65;;;;;;;;;;5040131;28;20472;-91
2022/11/26 11:12:44;;;;;;;7.80;3.47;;;;;;;;;;5025957;28;20025;-93
2022/11/26 11:15:26;;;;;;;14.45;3.05;;;;;;;;;;5025998;28;20029;-91
2022/11/26 11:18:02;;;;;;;5.10;2.40;;;;;;;;;;5055766;28;20038;-92
2022/11/26 11:20:37;;;;;;;4.07;2.30;;;;;;;;;;5044135;28;20060;-91
2022/11/26 11:23:19;;;;;;;10.93;3.58;;;;;;;;;;5024395;28;20041;-93
2022/11/26 11:26:16;;;;;;;8.85;2.22;;;;;;;;;;5044203;28;20033;-92
2022/11/26 11:28:49;;;;;;;9.10;2.83;;;;;;;;;;5026324;28;20566;-93
2022/11/26 11:31:26;;;;;;;7.85;2.67;;;;;;;;;;5041465;28;20025;-91
2022/11/26 11:34:15;;;;;;;5.25;2.33;;;;;;;;;;5042128;28;20031;-91
2022/11/26 11:37:12;;;;;;;6.85;1.75;;;;;;;;;;5038983;28;20034;-91
2022/11/26 11:39:39;;;;;;;3.65;1.98;;;;;;;;;;5036448;28;20025;-90
2022/11/26 11:42:16;;;;;;;7.22;2.65;;;;;;;;;;5020572;28;20045;-90
2022/11/26 11:44:47;;;;;;;9.70;3.00;;;;;;;;;;5019889;28;20706;-90
2022/11/26 11:47:33;;;;;;;10.82;2.50;;;;;;;;;;5028089;28;20068;-88
2022/11/26 11:50:20;;;;;;;3.58;2.42;;;;;;;;;;5046339;28;20456;-86
2022/11/26 11:53:07;;;;;;;7.57;2.58;;;;;;;;;;5057150;28;20033;-86
2022/11/26 11:56:02;;;;;;;3.83;2.08;;;;;;;;;;5060180;28;20198;-88
2022/11/26 11:58:51;;;;;;;5.10;2.15;;;;;;;;;;5044120;28;20036;-88
2022/11/26 12:01:59;;;;;;;5.40;2.17;;;;;;;;;;5045457;28;20082;-87
2022/11/26 12:04:43;;;;;;;6.35;2.38;;;;;;;;;;5043131;28;20055;-89
2022/11/26 12:07:21;;;;;;;5.97;2.67;;;;;;;;;;5069437;28;20043;-88
2022/11/26 12:09:51;;;;;;;11.60;3.17;;;;;;;;;;5066128;28;20123;-88
2022/11/26 12:12:25;;;;;;;6.65;2.25;;;;;;;;;;5050435;28;20021;-87
2022/11/26 12:14:54;;;;;;;6.22;3.42;;;;;;;;;;5057238;28;20037;-88
2022/11/26 12:17:32;;;;;;;10.35;3.88;;;;;;;;;;5057460;28;20036;-88
2022/11/26 12:20:24;;;;;;;7.55;3.80;;;;;;;;;;5056835;28;20029;-88
2022/11/26 12:23:12;;;;;;;6.80;2.93;;;;;;;;;;5057229;28;20440;-85
2022/11/26 12:25:38;;;;;;;9.80;3.30;;;;;;;;;;5058101;28;20025;-89
2022/11/26 12:28:15;;;;;;;6.88;2.97;;;;;;;;;;5041258;28;20052;-85
2022/11/26 12:30:56;;;;;;;11.65;2.85;;;;;;;;;;5060900;28;20044;-87
2022/11/26 12:33:48;;;;;;;12.50;2.95;;;;;;;;;;5060264;28;20505;-89
2022/11/26 12:36:22;;;;;;;8.68;3.00;;;;;;;;;;5043889;28;20037;-88
2022/11/26 12:38:58;;;;;;;8.45;3.05;;;;;;;;;;5048538;28;20075;-87
2022/11/26 12:41:33;;;;;;;12.93;3.47;;;;;;;;;;5062438;28;20040;-85
2022/11/26 12:44:30;;;;;;;7.35;2.92;;;;;;;;;;5064064;28;20056;-85
2022/11/26 12:47:18;;;;;;;3.42;2.20;;;;;;;;;;5066376;28;20075;-84
2022/11/26 12:50:16;;;;;;;4.53;2.83;;;;;;;;;;5067881;28;20017;-84
2022/11/26 12:53:00;;;;;;;8.20;2.40;;;;;;;;;;5055280;28;20123;-85
2022/11/26 12:55:37;;;;;;;5.30;2.28;;;;;;;;;;5060584;28;20017;-85
2022/11/26 12:58:20;;;;;;;4.85;2.20;;;;;;;;;;5062407;28;20028;-85
2022/11/26 13:00:48;;;;;;;10.73;2.47;;;;;;;;;;5065568;28;20134;-84
2022/11/26 13:03:15;;;;;;;7.00;2.05;;;;;;;;;;5064067;28;20063;-85
2022/11/26 13:05:57;;;;;;;5.75;2.22;;;;;;;;;;5064752;28;21330;-86
2022/11/26 13:08:40;;;;;;;;;;;;;;;;;;5029262;28;20016;-86
2022/11/26 13:11:37;;;;;;;13.45;2.45;;;;;;;;;;5052680;28;19919;-84
2022/11/26 13:14:09;;;;;;;7.10;1.98;;;;;;;;;;5051693;28;20028;-84
2022/11/26 13:16:43;;;;;;;11.20;2.47;;;;;;;;;;5081912;28;20043;-86
2022/11/26 13:19:25;;;;;;;10.45;2.83;;;;;;;;;;5069746;28;20273;-86
2022/11/26 13:22:15;;;;;;;5.18;2.08;;;;;;;;;;5068553;28;20522;-87
2022/11/26 13:25:16;;;;;;;7.50;2.08;;;;;;;;;;5051150;28;20224;-86
2022/11/26 13:27:50;;;;;;;3.03;2.13;;;;;;;;;;5058427;28;20094;-86
2022/11/26 13:30:23;;;;;;;8.23;2.20;;;;;;;;;;5069290;28;20552;-86
2022/11/26 13:33:16;;;;;;;8.55;2.25;;;;;;;;;;5061422;28;20071;-85
2022/11/26 13:35:52;;;;;;;6.78;2.38;;;;;;;;;;5056818;28;20044;-88
2022/11/26 13:38:19;;;;;;;4.00;1.75;;;;;;;;;;5055642;28;20098;-89
2022/11/26 13:41:00;;;;;;;7.63;2.08;;;;;;;;;;5055815;28;20025;-88
2022/11/26 13:44:11;;;;;;;3.45;1.83;;;;;;;;;;5050978;28;20058;-87
2022/11/26 13:46:45;;;;;;;8.75;2.28;;;;;;;;;;5007985;28;20094;-87
2022/11/26 13:49:20;;;;;;;4.88;1.90;;;;;;;;;;5047075;28;20024;-88
2022/11/26 13:51:58;;;;;;;3.63;1.60;;;;;;;;;;5049859;28;20059;-88
2022/11/26 13:54:27;;;;;;;6.20;2.15;;;;;;;;;;5052713;28;20032;-88
2022/11/26 13:57:03;;;;;;;7.03;2.38;;;;;;;;;;5052291;28;20029;-89
2022/11/26 13:59:29;;;;;;;2.97;1.50;;;;;;;;;;5050408;28;20074;-89
2022/11/26 14:01:54;;;;;;;6.68;2.30;;;;;;;;;;5054171;28;20032;-88
2022/11/26 14:04:22;;;;;;;5.20;1.80;;;;;;;;;;5056182;28;20029;-87
2022/11/26 14:07:03;;;;;;;8.93;2.40;;;;;;;;;;5057531;28;20066;-88
2022/11/26 14:09:40;;;;;;;8.02;2.75;;;;;;;;;;5053197;28;20029;-86
2022/11/26 14:12:06;;;;;;;13.73;4.05;;;;;;;;;;5053559;28;20036;-88
2022/11/26 14:14:32;;;;;;;11.63;3.97;;;;;;;;;;5056515;28;20029;-86
2022/11/26 14:17:01;;;;;;;11.35;3.63;;;;;;;;;;5054354;28;20056;-87
2022/11/26 14:19:38;;;;;;;16.38;4.35;;;;;;;;;;5053745;28;20116;-88
2022/11/26 14:22:10;;;;;;;9.93;4.10;;;;;;;;;;5029992;28;20048;-88
2022/11/26 14:24:50;;;;;;;6.60;3.47;;;;;;;;;;5051165;28;20029;-87
2022/11/26 14:27:17;;;;;;;6.97;3.30;;;;;;;;;;5052384;28;20067;-87
2022/11/26 14:29:43;;;;;;;12.07;3.60;;;;;;;;;;5054929;28;20021;-86
2022/11/26 14:32:21;;;;;;;11.75;3.65;;;;;;;;;;5052474;28;20032;-87
2022/11/26 14:34:53;;;;;;;7.47;3.58;;;;;;;;;;5052179;28;20051;-87
2022/11/26 14:37:21;;;;;;;9.43;4.28;;;;;;;;;;5052832;28;20047;-86
2022/11/26 14:40:04;;;;;;;13.95;3.13;;;;;;;;;;5057115;28;20032;-87
2022/11/26 14:42:30;;;;;;;8.45;3.95;;;;;;;;;;5041025;28;20035;-87
2022/11/26 14:45:16;;;;;;;9.10;3.83;;;;;;;;;;5021158;28;20021;-87
2022/11/26 14:47:44;;;;;;;8.65;3.72;;;;;;;;;;5051836;28;20036;-87
2022/11/26 14:50:14;;;;;;;8.43;3.33;;;;;;;;;;5054157;28;20040;-87
2022/11/26 14:52:42;;;;;;;7.75;3.92;;;;;;;;;;5058748;28;20051;-86
2022/11/26 14:55:19;;;;;;;13.13;4.13;;;;;;;;;;5057527;28;20049;-86
2022/11/26 14:57:56;;;;;;;12.32;3.67;;;;;;;;;;5055096;28;20084;-87
2022/11/26 15:00:24;;;;;;;6.60;3.60;;;;;;;;;;5051464;28;20016;-87
2022/11/26 15:02:50;;;;;;;13.57;4.35;;;;;;;;;;5055566;28;20041;-87
2022/11/26 15:05:19;;;;;;;13.80;4.25;;;;;;;;;;5054338;28;20132;-87
2022/11/26 15:07:55;;;;;;;9.25;4.28;;;;;;;;;;5054905;28;20021;-86